Airfield :
LOGIN :

Register | Disclaimer

   EN    FR    IT 

 










Legend :    VFR   Marginal VFR   IFR   Intensive IFR   Very Intensive IFR
Visi :
Ceiling :
>= 8 km
>= 3000ft
5 to 8 km
1000 to 3000 ft
1500m to 5 km
500 to 1000 ft
800 to 1500m
200 to 500 ft
< 800m
< 200 ft
Symbols :   Thunderstorms  Fog  Heavy snow  Heavy precipitations  Wind > 20 kt
SIGMETs :     Misc.  Thunderstorms  Icing  Turbulence  Mountain Waves  Volcanic Ashes






- Airport Elevation : 13 ft
- IATA code : CEQ


LFMD - Cannes Mandelieu

CURRENT METAR :
  • 221330Z AUTO 17007KT 140V200 9999 OVC025 23/18 Q1013 NOSIG

EXPIRED METARs :
  • 221300Z AUTO 15005KT 090V200 9999 FEW018 OVC024 23/18 Q1013 NOSIG
  • 221230Z AUTO 17006KT 120V220 9999 FEW014 OVC025 23/19 Q1013 NOSIG
  • 221200Z AUTO 17007KT 140V210 9999 FEW015 OVC025 23/18 Q1014 NOSIG
  • 221130Z AUTO 17007KT 110V200 9999 FEW016 OVC025 24/18 Q1014 NOSIG
  • 221100Z AUTO 15007KT 100V210 9999 FEW014 BKN024 24/19 Q1014 NOSIG

TAF TAF LFMD
Valid from the 22 at 09:00 until the 23 at 09:00 UTC


220800Z 2209/2309 15008KT 9999 SCT020 BKN030
TEMPO 2212/2219 FEW030
TEMPO 2220/2308 BKN012
ATIS : +33 4 92 19 94 92



MET'MAP, your aeronautical weather chart ! - Copyright ORBIFLY December 2007 - Disclaimer

ORBIFLY MET'MAP TEAM :

Programming & Development : Alexandra Zaïnal
Original concept : Baudouin d'Aumeries
Technical & hardware support : Manuel Goepfert
Assistance : Marc-Olivier Méhu

Contact : metmap@orbifly.com




SOURCES & CREDITS :

   NOAA